createdAt,value
2023-02-27T00:00:57.411Z,959.12
2023-02-27T00:03:57.621Z,959.12
2023-02-27T00:06:56.800Z,959.03
2023-02-27T00:09:56.714Z,959.03
2023-02-27T00:12:57.426Z,959.05
2023-02-27T00:15:57.555Z,959.09
2023-02-27T00:18:57.295Z,959.13
2023-02-27T00:21:56.594Z,959.16
2023-02-27T00:24:56.683Z,959.21
2023-02-27T00:27:57.205Z,959.07
2023-02-27T00:30:57.601Z,959.1
2023-02-27T00:33:56.999Z,959.07
2023-02-27T00:36:57.938Z,959.28
2023-02-27T00:39:57.875Z,959.2
2023-02-27T00:42:57.283Z,959.16
2023-02-27T00:45:57.830Z,959.26
2023-02-27T00:48:57.282Z,959.17
2023-02-27T00:51:56.783Z,959.24
2023-02-27T00:54:57.112Z,959.21
2023-02-27T00:57:58.031Z,959.19
2023-02-27T01:00:58.345Z,959.17
2023-02-27T01:03:56.798Z,959.19
2023-02-27T01:06:57.665Z,959.11
2023-02-27T01:09:57.613Z,959.13
2023-02-27T01:12:57.594Z,959.11
2023-02-27T01:15:57.642Z,959.04
2023-02-27T01:18:56.721Z,959.12
2023-02-27T01:21:56.831Z,959.03
2023-02-27T01:24:57.479Z,959.1
2023-02-27T01:27:56.617Z,959.16
2023-02-27T01:30:57.368Z,959.14
2023-02-27T01:33:56.768Z,959.11
2023-02-27T01:36:57.189Z,959.11
2023-02-27T01:39:57.230Z,959.14
2023-02-27T01:42:57.289Z,959.09
2023-02-27T01:45:57.239Z,959.08
2023-02-27T01:48:57.447Z,959.04
2023-02-27T01:51:57.651Z,959.05
2023-02-27T01:54:57.666Z,959.09
2023-02-27T01:57:56.993Z,958.99
2023-02-27T02:00:57.917Z,959.09
2023-02-27T02:03:57.246Z,959.02
2023-02-27T02:06:56.889Z,959.05
2023-02-27T02:09:56.866Z,958.95
2023-02-27T02:12:57.285Z,958.95
2023-02-27T02:15:56.921Z,958.96
2023-02-27T02:18:57.363Z,959.1
2023-02-27T02:21:56.921Z,958.96
2023-02-27T02:24:57.027Z,959.01
2023-02-27T02:27:56.825Z,959.08
2023-02-27T02:30:57.735Z,959.06
2023-02-27T02:33:57.114Z,959.05
2023-02-27T02:36:57.392Z,959.16
2023-02-27T02:39:57.456Z,959.05
2023-02-27T02:42:57.583Z,959.16
2023-02-27T02:45:58.275Z,959.06
2023-02-27T02:48:56.696Z,959.08
2023-02-27T02:51:57.661Z,959.13
2023-02-27T02:54:57.267Z,959.12
2023-02-27T02:57:56.749Z,959.06
2023-02-27T03:00:58.196Z,959.09
2023-02-27T03:03:57.823Z,959.14
2023-02-27T03:06:57.102Z,959.19
2023-02-27T03:09:57.829Z,959.19
2023-02-27T03:12:59.285Z,959.19
2023-02-27T03:15:57.286Z,959.25
2023-02-27T03:18:56.924Z,959.19
2023-02-27T03:21:57.102Z,959.1
2023-02-27T03:24:57.672Z,959.23
2023-02-27T03:27:57.559Z,959.19
2023-02-27T03:30:57.561Z,959.21
2023-02-27T03:33:57.713Z,959.19
2023-02-27T03:36:57.494Z,959.3
2023-02-27T03:39:57.511Z,959.16
2023-02-27T03:42:57.341Z,959.35
2023-02-27T03:45:57.898Z,959.36
2023-02-27T03:48:56.992Z,959.26
2023-02-27T03:51:57.363Z,959.35
2023-02-27T03:54:57.504Z,959.32
2023-02-27T03:57:56.852Z,959.35
2023-02-27T04:00:57.544Z,959.39
2023-02-27T04:03:57.558Z,959.35
2023-02-27T04:06:56.849Z,959.37
2023-02-27T04:09:57.445Z,959.3
2023-02-27T04:12:56.875Z,959.25
2023-02-27T04:15:57.262Z,959.25
2023-02-27T04:18:57.426Z,959.31
2023-02-27T04:21:56.880Z,959.3
2023-02-27T04:24:57.467Z,959.26
2023-02-27T04:27:57.148Z,959.35
2023-02-27T04:30:57.687Z,959.24
2023-02-27T04:33:57.251Z,959.2
2023-02-27T04:36:57.439Z,959.36
2023-02-27T04:39:57.838Z,959.45
2023-02-27T04:42:56.775Z,959.44
2023-02-27T04:45:57.067Z,959.52
2023-02-27T04:48:57.540Z,959.5
2023-02-27T04:51:57.422Z,959.57
2023-02-27T04:54:57.655Z,959.54
2023-02-27T04:57:57.842Z,959.56
2023-02-27T05:00:57.271Z,959.52
2023-02-27T05:04:00.151Z,959.48
2023-02-27T05:06:57.751Z,959.5
2023-02-27T05:09:57.653Z,959.53
2023-02-27T05:12:57.439Z,959.63
2023-02-27T05:15:57.421Z,959.49
2023-02-27T05:18:57.852Z,959.57
2023-02-27T05:21:57.358Z,959.57
2023-02-27T05:24:57.165Z,959.59
2023-02-27T05:27:57.127Z,959.55
2023-02-27T05:30:57.125Z,959.55
2023-02-27T05:33:57.882Z,959.63
2023-02-27T05:36:57.024Z,959.65
2023-02-27T05:39:57.599Z,959.72
2023-02-27T05:42:56.695Z,959.7
2023-02-27T05:45:57.678Z,959.62
2023-02-27T05:48:57.400Z,959.66
2023-02-27T05:51:57.348Z,959.74
2023-02-27T05:54:58.057Z,959.7
2023-02-27T05:57:58.092Z,959.78
2023-02-27T06:00:58.624Z,959.71
2023-02-27T06:03:57.995Z,959.8
2023-02-27T06:06:57.437Z,959.77
2023-02-27T06:09:57.125Z,959.7
2023-02-27T06:12:57.387Z,959.77
2023-02-27T06:15:58.175Z,959.74
2023-02-27T06:18:57.856Z,959.67
2023-02-27T06:21:57.325Z,959.77
2023-02-27T06:24:57.536Z,959.9
2023-02-27T06:27:57.310Z,959.8
2023-02-27T06:30:58.037Z,959.93
2023-02-27T06:33:57.387Z,959.94
2023-02-27T06:36:57.279Z,960.0
2023-02-27T06:39:57.209Z,959.97
2023-02-27T06:42:57.228Z,959.97
2023-02-27T06:45:57.963Z,959.95
2023-02-27T06:48:58.047Z,960.12
2023-02-27T06:51:57.956Z,959.98
2023-02-27T06:54:58.091Z,960.08
2023-02-27T06:57:57.908Z,959.99
2023-02-27T07:00:58.295Z,960.02
2023-02-27T07:03:57.660Z,959.96
2023-02-27T07:07:35.269Z,959.96
2023-02-27T07:09:57.812Z,959.95
2023-02-27T07:12:57.611Z,959.93
2023-02-27T07:15:57.528Z,960.01
2023-02-27T07:18:56.975Z,959.97
2023-02-27T07:21:57.388Z,959.93
2023-02-27T07:24:57.851Z,960.07
2023-02-27T07:27:57.852Z,960.19
2023-02-27T07:30:58.186Z,960.1
2023-02-27T07:33:57.328Z,960.0
2023-02-27T07:36:57.390Z,960.07
2023-02-27T07:39:57.912Z,960.11
2023-02-27T07:42:58.419Z,960.03
2023-02-27T07:45:58.266Z,960.14
2023-02-27T07:48:57.383Z,960.08
2023-02-27T07:51:57.751Z,960.16
2023-02-27T07:54:57.658Z,960.13
2023-02-27T07:57:57.699Z,960.15
2023-02-27T08:00:57.689Z,960.19
2023-02-27T08:03:57.592Z,960.17
2023-02-27T08:06:57.227Z,960.12
2023-02-27T08:09:57.813Z,960.21
2023-02-27T08:12:57.308Z,960.16
2023-02-27T08:15:57.264Z,960.27
2023-02-27T08:18:57.639Z,960.15
2023-02-27T08:21:57.185Z,960.22
2023-02-27T08:24:57.239Z,960.25
2023-02-27T08:27:56.643Z,960.33
2023-02-27T08:30:57.334Z,960.3
2023-02-27T08:34:09.111Z,960.27
2023-02-27T08:36:56.778Z,960.28
2023-02-27T08:39:57.199Z,960.29
2023-02-27T08:42:56.948Z,960.27
2023-02-27T08:45:57.507Z,960.36
2023-02-27T08:48:57.417Z,960.34
2023-02-27T08:51:57.238Z,960.42
2023-02-27T08:54:57.180Z,960.44
2023-02-27T08:57:57.402Z,960.37
2023-02-27T09:00:57.843Z,960.45
2023-02-27T09:03:57.905Z,960.55
2023-02-27T09:06:57.232Z,960.54
2023-02-27T09:09:57.091Z,960.56
2023-02-27T09:12:57.316Z,960.57
2023-02-27T09:15:57.661Z,960.55
2023-02-27T09:18:57.804Z,960.56
2023-02-27T09:21:57.389Z,960.59
2023-02-27T09:24:57.404Z,960.5
2023-02-27T09:27:56.894Z,960.49
2023-02-27T09:30:57.920Z,960.51
2023-02-27T09:33:57.670Z,960.53
2023-02-27T09:36:57.692Z,960.56
2023-02-27T09:39:58.257Z,960.58
2023-02-27T09:42:57.619Z,960.58
2023-02-27T09:45:57.299Z,960.53
2023-02-27T09:48:57.201Z,960.54
2023-02-27T09:51:57.523Z,960.68
2023-02-27T09:54:57.362Z,960.71
2023-02-27T09:57:56.820Z,960.67
2023-02-27T10:00:58.398Z,960.73
2023-02-27T10:03:56.969Z,960.77
2023-02-27T10:06:57.582Z,960.81
2023-02-27T10:09:58.155Z,960.98
2023-02-27T10:12:57.961Z,960.85
2023-02-27T10:15:57.325Z,960.78
2023-02-27T10:18:57.191Z,960.87
2023-02-27T10:21:56.963Z,960.83
2023-02-27T10:24:57.090Z,960.88
2023-02-27T10:27:57.754Z,960.94
2023-02-27T10:30:57.799Z,960.94
2023-02-27T10:33:57.816Z,961.03
2023-02-27T10:36:57.732Z,960.98
2023-02-27T10:39:57.066Z,961.01
2023-02-27T10:42:56.754Z,961.0
2023-02-27T10:45:57.244Z,961.04
2023-02-27T10:48:57.561Z,961.1
2023-02-27T10:51:57.577Z,961.16
2023-02-27T10:54:57.325Z,961.18
2023-02-27T10:57:56.826Z,961.09
2023-02-27T11:00:57.924Z,961.19
2023-02-27T11:04:16.199Z,961.12
2023-02-27T11:06:57.221Z,961.24
2023-02-27T11:09:57.404Z,961.09
2023-02-27T11:12:57.156Z,961.14
2023-02-27T11:15:57.347Z,961.11
2023-02-27T11:18:57.345Z,961.01
2023-02-27T11:21:57.402Z,961.04
2023-02-27T11:24:57.260Z,960.89
2023-02-27T11:27:57.336Z,960.94
2023-02-27T11:30:58.015Z,960.83
2023-02-27T11:33:57.100Z,960.9
2023-02-27T11:36:58.073Z,960.84
2023-02-27T11:39:57.710Z,960.81
2023-02-27T11:42:57.050Z,960.81
2023-02-27T11:46:27.684Z,960.85
2023-02-27T11:48:57.431Z,960.83
2023-02-27T11:51:57.747Z,960.83
2023-02-27T11:54:57.328Z,960.84
2023-02-27T11:57:57.190Z,960.87
2023-02-27T12:00:58.529Z,960.88
2023-02-27T12:03:57.654Z,960.85
2023-02-27T12:06:56.990Z,960.88
2023-02-27T12:09:57.539Z,960.88
2023-02-27T12:12:57.138Z,960.85
2023-02-27T12:15:57.606Z,960.87
2023-02-27T12:18:57.366Z,960.84
2023-02-27T12:21:57.017Z,960.87
2023-02-27T12:24:57.521Z,960.85
2023-02-27T12:27:57.119Z,960.83
2023-02-27T12:30:58.116Z,960.78
2023-02-27T12:33:57.619Z,960.77
2023-02-27T12:36:57.203Z,960.73
2023-02-27T12:39:58.094Z,960.7
2023-02-27T12:42:57.306Z,960.68
2023-02-27T12:45:57.246Z,960.81
2023-02-27T12:48:58.033Z,960.75
2023-02-27T12:51:57.842Z,960.77
2023-02-27T12:54:57.388Z,960.83
2023-02-27T12:57:56.994Z,960.81
2023-02-27T13:00:57.576Z,960.79
2023-02-27T13:03:57.534Z,960.62
2023-02-27T13:06:56.943Z,960.69
2023-02-27T13:09:57.471Z,960.69
2023-02-27T13:12:57.128Z,960.76
2023-02-27T13:15:57.448Z,960.72
2023-02-27T13:18:57.417Z,960.76
2023-02-27T13:21:57.533Z,960.78
2023-02-27T13:24:57.555Z,960.62
2023-02-27T13:27:57.265Z,960.77
2023-02-27T13:30:57.557Z,960.74
2023-02-27T13:33:57.412Z,960.64
2023-02-27T13:36:57.728Z,960.57
2023-02-27T13:39:57.357Z,960.73
2023-02-27T13:42:57.569Z,960.66
2023-02-27T13:45:57.479Z,960.64
2023-02-27T13:48:57.416Z,960.53
2023-02-27T13:51:57.155Z,960.63
2023-02-27T13:55:06.245Z,960.66
2023-02-27T13:57:58.035Z,960.64
2023-02-27T14:00:57.402Z,960.67
2023-02-27T14:03:57.089Z,960.68
2023-02-27T14:06:57.290Z,960.62
2023-02-27T14:09:57.749Z,960.67
2023-02-27T14:12:57.386Z,960.72
2023-02-27T14:15:57.954Z,960.72
2023-02-27T14:18:57.573Z,960.67
2023-02-27T14:21:57.629Z,960.63
2023-02-27T14:25:02.817Z,960.67
2023-02-27T14:27:57.873Z,960.78
2023-02-27T14:30:57.718Z,960.7
2023-02-27T14:33:57.086Z,960.66
2023-02-27T14:36:57.621Z,960.67
2023-02-27T14:39:57.662Z,960.73
2023-02-27T14:42:57.140Z,960.76
2023-02-27T14:45:57.462Z,960.76
2023-02-27T14:49:01.418Z,960.77
2023-02-27T14:51:57.510Z,960.82
2023-02-27T14:54:57.408Z,960.77
2023-02-27T14:57:57.244Z,960.86
2023-02-27T15:00:57.756Z,960.82
2023-02-27T15:03:57.493Z,960.93
2023-02-27T15:06:57.256Z,960.9
2023-02-27T15:09:57.792Z,961.06
2023-02-27T15:12:57.761Z,961.06
2023-02-27T15:16:02.178Z,960.91
2023-02-27T15:18:57.534Z,960.93
2023-02-27T15:21:57.997Z,961.01
2023-02-27T15:24:57.054Z,961.1
2023-02-27T15:28:04.246Z,961.01
2023-02-27T15:30:57.480Z,961.03
2023-02-27T15:33:57.910Z,961.03
2023-02-27T15:36:56.956Z,961.12
2023-02-27T15:39:57.983Z,961.03
2023-02-27T15:42:57.036Z,961.1
2023-02-27T15:45:57.478Z,961.09
2023-02-27T15:48:57.571Z,961.18
2023-02-27T15:51:57.429Z,961.11
2023-02-27T15:54:57.507Z,961.14
2023-02-27T15:58:03.136Z,961.13
2023-02-27T16:00:57.812Z,961.2
2023-02-27T16:03:57.463Z,961.21
2023-02-27T16:06:57.420Z,961.27
2023-02-27T16:09:57.958Z,961.29
2023-02-27T16:12:57.278Z,961.33
2023-02-27T16:15:57.912Z,961.38
2023-02-27T16:18:57.510Z,961.46
2023-02-27T16:21:57.598Z,961.51
2023-02-27T16:24:58.038Z,961.54
2023-02-27T16:27:57.530Z,961.47
2023-02-27T16:30:57.882Z,961.59
2023-02-27T16:33:56.853Z,961.62
2023-02-27T16:36:57.804Z,961.61
2023-02-27T16:39:57.896Z,961.68
2023-02-27T16:42:57.786Z,961.68
2023-02-27T16:45:58.524Z,961.68
2023-02-27T16:48:58.048Z,961.83
2023-02-27T16:51:57.354Z,961.83
2023-02-27T16:54:57.762Z,961.85
2023-02-27T16:57:57.208Z,961.91
2023-02-27T17:00:58.571Z,961.96
2023-02-27T17:03:57.863Z,962.0
2023-02-27T17:06:57.429Z,962.04
2023-02-27T17:09:57.936Z,962.11
2023-02-27T17:12:57.854Z,962.06
2023-02-27T17:15:58.284Z,962.05
2023-02-27T17:18:58.161Z,962.01
2023-02-27T17:21:57.329Z,962.09
2023-02-27T17:24:58.136Z,962.09
2023-02-27T17:27:57.837Z,962.17
2023-02-27T17:30:57.921Z,962.23
2023-02-27T17:33:57.990Z,962.16
2023-02-27T17:36:57.262Z,962.28
2023-02-27T17:39:59.046Z,962.37
2023-02-27T17:42:57.849Z,962.37
2023-02-27T17:45:58.538Z,962.29
2023-02-27T17:48:57.936Z,962.41
2023-02-27T17:51:57.906Z,962.37
2023-02-27T17:54:58.366Z,962.41
2023-02-27T17:57:58.085Z,962.42
2023-02-27T18:00:58.824Z,962.41
2023-02-27T18:03:57.606Z,962.46
2023-02-27T18:06:58.091Z,962.46
2023-02-27T18:09:57.560Z,962.43
2023-02-27T18:12:57.562Z,962.42
2023-02-27T18:15:57.728Z,962.42
2023-02-27T18:18:56.883Z,962.49
2023-02-27T18:21:57.521Z,962.58
2023-02-27T18:24:57.917Z,962.61
2023-02-27T18:27:57.802Z,962.51
2023-02-27T18:30:57.651Z,962.52
2023-02-27T18:33:57.995Z,962.51
2023-02-27T18:36:58.381Z,962.51
2023-02-27T18:39:57.826Z,962.45
2023-02-27T18:42:57.779Z,962.46
2023-02-27T18:45:57.290Z,962.46
2023-02-27T18:48:57.800Z,962.42
2023-02-27T18:51:58.098Z,962.45
2023-02-27T18:54:57.983Z,962.46
2023-02-27T18:57:57.789Z,962.46
2023-02-27T19:01:26.280Z,962.53
2023-02-27T19:03:57.869Z,962.46
2023-02-27T19:06:57.739Z,962.47
2023-02-27T19:09:57.751Z,962.52
2023-02-27T19:12:57.473Z,962.48
2023-02-27T19:15:57.965Z,962.61
2023-02-27T19:18:57.205Z,962.48
2023-02-27T19:21:57.691Z,962.48
2023-02-27T19:24:57.245Z,962.48
2023-02-27T19:27:57.148Z,962.48
2023-02-27T19:30:57.386Z,962.52
2023-02-27T19:33:57.629Z,962.41
2023-02-27T19:36:57.283Z,962.48
2023-02-27T19:39:57.767Z,962.48
2023-02-27T19:42:57.840Z,962.48
2023-02-27T19:45:57.673Z,962.43
2023-02-27T19:48:57.529Z,962.46
2023-02-27T19:51:57.943Z,962.42
2023-02-27T19:54:57.216Z,962.54
2023-02-27T19:57:57.112Z,962.56
2023-02-27T20:00:57.894Z,962.49
2023-02-27T20:03:58.239Z,962.49
2023-02-27T20:06:57.075Z,962.52
2023-02-27T20:09:57.599Z,962.55
2023-02-27T20:12:57.247Z,962.47
2023-02-27T20:15:57.803Z,962.5
2023-02-27T20:18:57.540Z,962.48
2023-02-27T20:21:57.444Z,962.51
2023-02-27T20:24:57.320Z,962.31
2023-02-27T20:27:57.600Z,962.36
2023-02-27T20:30:57.766Z,962.41
2023-02-27T20:33:57.102Z,962.46
2023-02-27T20:36:57.673Z,962.33
2023-02-27T20:39:58.068Z,962.34
2023-02-27T20:42:57.383Z,962.31
2023-02-27T20:45:57.461Z,962.36
2023-02-27T20:48:57.269Z,962.3
2023-02-27T20:51:57.459Z,962.34
2023-02-27T20:54:57.234Z,962.23
2023-02-27T20:57:57.265Z,962.18
2023-02-27T21:00:57.728Z,962.27
2023-02-27T21:03:57.817Z,962.18
2023-02-27T21:06:57.198Z,962.17
2023-02-27T21:09:58.092Z,962.27
2023-02-27T21:12:57.321Z,962.19
2023-02-27T21:15:57.552Z,962.31
2023-02-27T21:18:57.304Z,962.3
2023-02-27T21:21:57.871Z,962.36
2023-02-27T21:24:57.674Z,962.23
2023-02-27T21:27:57.528Z,962.38
2023-02-27T21:30:57.893Z,962.38
2023-02-27T21:33:57.538Z,962.3
2023-02-27T21:36:57.368Z,962.31
2023-02-27T21:39:57.740Z,962.19
2023-02-27T21:42:57.901Z,962.16
2023-02-27T21:45:57.448Z,962.19
2023-02-27T21:48:57.615Z,962.12
2023-02-27T21:51:56.885Z,962.16
2023-02-27T21:54:57.194Z,962.06
2023-02-27T21:57:58.111Z,962.08
2023-02-27T22:00:58.149Z,962.0
2023-02-27T22:03:57.407Z,962.01
2023-02-27T22:06:57.898Z,961.98
2023-02-27T22:09:57.817Z,961.96
2023-02-27T22:12:57.703Z,961.96
2023-02-27T22:15:57.184Z,961.84
2023-02-27T22:18:57.755Z,962.03
2023-02-27T22:21:57.157Z,961.97
2023-02-27T22:24:57.712Z,962.01
2023-02-27T22:28:02.742Z,962.01
2023-02-27T22:30:58.528Z,961.94
2023-02-27T22:34:02.173Z,962.0
2023-02-27T22:36:57.174Z,962.06
2023-02-27T22:39:58.180Z,962.07
2023-02-27T22:42:57.824Z,961.98
2023-02-27T22:45:57.065Z,962.02
2023-02-27T22:48:57.586Z,961.93
2023-02-27T22:51:57.233Z,961.9
2023-02-27T22:54:57.279Z,961.9
2023-02-27T22:57:57.222Z,961.77
2023-02-27T23:00:58.438Z,961.83
2023-02-27T23:03:56.985Z,961.85
2023-02-27T23:06:57.356Z,961.84
2023-02-27T23:09:58.161Z,961.78
2023-02-27T23:12:57.338Z,961.88
2023-02-27T23:15:57.715Z,961.85
2023-02-27T23:18:57.204Z,961.84
2023-02-27T23:21:57.552Z,961.81
2023-02-27T23:24:57.431Z,961.83
2023-02-27T23:27:57.276Z,961.89
2023-02-27T23:30:57.152Z,961.76
2023-02-27T23:33:57.670Z,961.79
2023-02-27T23:36:56.925Z,961.83
2023-02-27T23:39:56.958Z,961.82
2023-02-27T23:42:57.014Z,961.82
2023-02-27T23:45:57.277Z,961.69
2023-02-27T23:48:57.299Z,961.72
2023-02-27T23:51:57.648Z,961.55
2023-02-27T23:54:57.732Z,961.63
2023-02-27T23:57:57.070Z,961.63
